Time;durP1;ratioP1;P1;durP2;ratioP2;P2;SDS_P1;SDS_P2;PMS_P1;PMS_P2;Temp;Humidity;BMP_temperature;BMP_pressure;BME280_temperature;BME280_humidity;BME280_pressure;Samples;Min_cycle;Max_cycle;Signal;HPM_P1;HPM_P2
2022/03/17 00:02:15;;;;;;;11.10;7.05;;;;;;;;;;4984693;28;20327;-51
2022/03/17 00:04:40;;;;;;;11.37;6.63;;;;;;;;;;4984644;28;20026;-51
2022/03/17 00:07:05;;;;;;;10.10;7.03;;;;;;;;;;4984268;28;20285;-51
2022/03/17 00:09:30;;;;;;;10.23;6.90;;;;;;;;;;4984299;28;20019;-49
2022/03/17 00:11:55;;;;;;;10.17;6.43;;;;;;;;;;4984550;28;20285;-51
2022/03/17 00:14:21;;;;;;;12.53;7.10;;;;;;;;;;4984206;28;20384;-51
2022/03/17 00:16:46;;;;;;;10.53;7.30;;;;;;;;;;4984898;28;20777;-51
2022/03/17 00:19:11;;;;;;;9.97;6.47;;;;;;;;;;4984030;28;20642;-51
2022/03/17 00:21:37;;;;;;;9.53;6.60;;;;;;;;;;4984140;28;20875;-52
2022/03/17 00:24:02;;;;;;;10.43;6.97;;;;;;;;;;4980059;28;20270;-51
2022/03/17 00:26:28;;;;;;;10.68;6.65;;;;;;;;;;4972758;28;20049;-51
2022/03/17 00:28:53;;;;;;;10.03;6.20;;;;;;;;;;4984632;28;20108;-51
2022/03/17 00:31:18;;;;;;;10.93;7.13;;;;;;;;;;4984518;28;20034;-51
2022/03/17 00:33:44;;;;;;;11.70;7.40;;;;;;;;;;4984013;28;20140;-51
2022/03/17 00:36:10;;;;;;;11.52;7.00;;;;;;;;;;4984121;28;20769;-51
2022/03/17 00:38:35;;;;;;;8.87;6.27;;;;;;;;;;4983963;28;20057;-50
2022/03/17 00:41:00;;;;;;;9.73;6.60;;;;;;;;;;4984636;28;20069;-51
2022/03/17 00:43:25;;;;;;;10.68;6.78;;;;;;;;;;4984031;28;20760;-51
2022/03/17 00:45:50;;;;;;;10.27;6.80;;;;;;;;;;4967942;28;20105;-51
2022/03/17 00:48:16;;;;;;;10.43;6.47;;;;;;;;;;4983803;28;20323;-51
2022/03/17 00:50:41;;;;;;;10.25;6.25;;;;;;;;;;4993745;28;20061;-51
2022/03/17 00:53:06;;;;;;;9.02;6.25;;;;;;;;;;4990113;28;20060;-52
2022/03/17 00:55:32;;;;;;;10.90;6.90;;;;;;;;;;4983995;28;20500;-51
2022/03/17 00:57:57;;;;;;;10.77;6.50;;;;;;;;;;4983941;28;20037;-51
2022/03/17 01:00:22;;;;;;;8.70;5.93;;;;;;;;;;4983530;28;20328;-51
2022/03/17 01:02:48;;;;;;;9.68;6.93;;;;;;;;;;4983770;28;20034;-49
2022/03/17 01:05:14;;;;;;;10.23;6.80;;;;;;;;;;4970112;28;20117;-52
2022/03/17 01:07:39;;;;;;;10.23;6.88;;;;;;;;;;4998623;28;20125;-51
2022/03/17 01:10:05;;;;;;;10.90;6.70;;;;;;;;;;5003132;28;20032;-51
2022/03/17 01:12:30;;;;;;;11.38;7.45;;;;;;;;;;4995466;28;20111;-52
2022/03/17 01:14:56;;;;;;;10.07;6.55;;;;;;;;;;4983475;28;20060;-51
2022/03/17 01:17:21;;;;;;;10.60;6.43;;;;;;;;;;4983641;28;20050;-51
2022/03/17 01:19:46;;;;;;;10.17;6.80;;;;;;;;;;4983565;28;20273;-51
2022/03/17 01:22:11;;;;;;;9.53;6.50;;;;;;;;;;4983577;28;20266;-51
2022/03/17 01:24:37;;;;;;;9.00;6.45;;;;;;;;;;4974291;28;20313;-51
2022/03/17 01:27:02;;;;;;;9.73;6.13;;;;;;;;;;4978372;28;20058;-52
2022/03/17 01:29:29;;;;;;;9.90;6.28;;;;;;;;;;4999034;28;20025;-51
2022/03/17 01:31:54;;;;;;;11.20;6.25;;;;;;;;;;4999563;28;20033;-51
2022/03/17 01:34:19;;;;;;;9.07;6.38;;;;;;;;;;4983431;28;20026;-51
2022/03/17 01:36:44;;;;;;;9.15;6.30;;;;;;;;;;4983229;28;20022;-51
2022/03/17 01:39:10;;;;;;;12.02;6.85;;;;;;;;;;4983179;28;20026;-51
2022/03/17 01:41:35;;;;;;;10.37;6.13;;;;;;;;;;4983002;28;20022;-51
2022/03/17 01:44:00;;;;;;;10.25;6.22;;;;;;;;;;4983412;28;20023;-51
2022/03/17 01:46:25;;;;;;;9.25;6.40;;;;;;;;;;4983390;28;20026;-51
2022/03/17 01:48:51;;;;;;;9.70;6.23;;;;;;;;;;4983378;28;20613;-51
2022/03/17 01:51:16;;;;;;;9.98;6.65;;;;;;;;;;4983164;28;21145;-51
2022/03/17 01:53:41;;;;;;;10.30;6.00;;;;;;;;;;4982877;28;20055;-51
2022/03/17 01:56:06;;;;;;;8.13;5.60;;;;;;;;;;4983145;28;20022;-50
2022/03/17 01:58:32;;;;;;;10.33;6.70;;;;;;;;;;4983186;28;20792;-51
2022/03/17 02:00:57;;;;;;;9.93;6.13;;;;;;;;;;4983067;28;20653;-51
2022/03/17 02:03:23;;;;;;;8.70;5.73;;;;;;;;;;4981913;28;20514;-51
2022/03/17 02:05:51;;;;;;;8.85;6.13;;;;;;;;;;4971982;28;20780;-52
2022/03/17 02:08:16;;;;;;;9.38;6.20;;;;;;;;;;5006796;28;20041;-51
2022/03/17 02:13:25;;;;;;;9.70;6.05;;;;;;;;;;4991345;28;20679;-51
2022/03/17 02:15:51;;;;;;;8.63;5.90;;;;;;;;;;4986713;28;20018;-51
2022/03/17 02:18:17;;;;;;;8.73;5.80;;;;;;;;;;4986553;28;20273;-51
2022/03/17 02:20:43;;;;;;;9.75;5.95;;;;;;;;;;4985246;28;20416;-51
2022/03/17 02:25:58;;;;;;;10.38;6.38;;;;;;;;;;4970069;28;20351;-51
2022/03/17 02:28:25;;;;;;;8.60;5.72;;;;;;;;;;4986419;28;20038;-51
2022/03/17 02:30:50;;;;;;;8.32;5.70;;;;;;;;;;4985208;28;20041;-51
2022/03/17 02:33:16;;;;;;;9.40;5.85;;;;;;;;;;4986471;28;20018;-51
2022/03/17 02:35:41;;;;;;;9.55;6.03;;;;;;;;;;5003891;28;20485;-50
2022/03/17 02:38:07;;;;;;;8.02;5.60;;;;;;;;;;5004619;28;20041;-52
2022/03/17 02:40:33;;;;;;;8.20;5.43;;;;;;;;;;5004732;28;20088;-50
2022/03/17 02:42:58;;;;;;;7.97;5.30;;;;;;;;;;5000593;28;20116;-51
2022/03/17 02:45:23;;;;;;;7.43;5.57;;;;;;;;;;4990856;28;20027;-52
2022/03/17 02:47:48;;;;;;;9.77;5.73;;;;;;;;;;4986112;28;20304;-51
2022/03/17 02:50:14;;;;;;;9.10;5.53;;;;;;;;;;4986373;28;20887;-51
2022/03/17 02:52:39;;;;;;;8.75;6.07;;;;;;;;;;4986230;28;20577;-50
2022/03/17 02:55:04;;;;;;;7.40;5.30;;;;;;;;;;4985305;28;20457;-51
2022/03/17 02:57:30;;;;;;;7.90;5.22;;;;;;;;;;4985935;28;20121;-51
2022/03/17 02:59:55;;;;;;;8.13;5.53;;;;;;;;;;4985878;28;20046;-51
2022/03/17 03:02:20;;;;;;;9.80;5.30;;;;;;;;;;4986144;28;20720;-52
2022/03/17 03:04:46;;;;;;;8.05;5.07;;;;;;;;;;4985718;28;20272;-51
2022/03/17 03:07:11;;;;;;;9.13;5.13;;;;;;;;;;4985945;28;20038;-51
2022/03/17 03:09:36;;;;;;;8.93;5.90;;;;;;;;;;4985735;28;20034;-51
2022/03/17 03:12:01;;;;;;;7.93;5.25;;;;;;;;;;4986000;28;20034;-51
2022/03/17 03:14:28;;;;;;;7.63;5.20;;;;;;;;;;4985821;28;20030;-51
2022/03/17 03:16:53;;;;;;;7.50;5.10;;;;;;;;;;4985714;28;20026;-51
2022/03/17 03:19:18;;;;;;;8.32;4.97;;;;;;;;;;4985791;28;20406;-51
2022/03/17 03:21:43;;;;;;;7.70;5.00;;;;;;;;;;4985344;28;20088;-52
2022/03/17 03:24:09;;;;;;;7.10;4.97;;;;;;;;;;4981627;28;20334;-51
2022/03/17 03:26:34;;;;;;;8.07;5.32;;;;;;;;;;4975526;28;20042;-51
2022/03/17 03:29:00;;;;;;;7.00;5.10;;;;;;;;;;4997268;28;20119;-51
2022/03/17 03:31:25;;;;;;;8.00;4.77;;;;;;;;;;5006792;28;20273;-51
2022/03/17 03:33:50;;;;;;;8.00;5.23;;;;;;;;;;4991101;28;20041;-53
2022/03/17 03:38:59;;;;;;;7.97;5.15;;;;;;;;;;4985621;28;20308;-50
2022/03/17 03:41:24;;;;;;;8.60;4.83;;;;;;;;;;4985780;28;20030;-51
2022/03/17 03:43:49;;;;;;;7.03;5.00;;;;;;;;;;4983072;28;20275;-51
2022/03/17 03:46:15;;;;;;;8.07;5.30;;;;;;;;;;4984213;28;20284;-51
2022/03/17 03:48:40;;;;;;;7.53;5.00;;;;;;;;;;4985059;28;20046;-51
2022/03/17 03:51:06;;;;;;;7.35;5.07;;;;;;;;;;4997573;28;20280;-51
2022/03/17 03:54:13;;;;;;;7.03;4.43;;;;;;;;;;4988653;28;20054;-50
2022/03/17 03:56:16;;;;;;;7.63;4.95;;;;;;;;;;4984816;28;20030;-50
2022/03/17 03:58:41;;;;;;;7.95;5.22;;;;;;;;;;4984712;28;20045;-51
2022/03/17 04:01:06;;;;;;;7.37;5.13;;;;;;;;;;4984935;28;20069;-50
2022/03/17 04:03:32;;;;;;;7.37;4.77;;;;;;;;;;4984395;28;20034;-51
2022/03/17 04:05:57;;;;;;;6.73;4.33;;;;;;;;;;4971406;28;20265;-50
2022/03/17 04:08:22;;;;;;;6.60;4.60;;;;;;;;;;5004291;28;20053;-51
2022/03/17 04:10:47;;;;;;;7.63;4.53;;;;;;;;;;5003057;28;20273;-51
2022/03/17 04:13:13;;;;;;;7.73;5.07;;;;;;;;;;4991290;28;20285;-51
2022/03/17 04:15:38;;;;;;;6.00;4.43;;;;;;;;;;4984586;28;20118;-50
2022/03/17 04:18:03;;;;;;;7.20;4.43;;;;;;;;;;4984218;28;20054;-51
2022/03/17 04:20:28;;;;;;;7.15;4.47;;;;;;;;;;4982269;28;20289;-51
2022/03/17 04:22:53;;;;;;;7.53;4.57;;;;;;;;;;4984512;28;20026;-50
2022/03/17 04:25:19;;;;;;;7.33;4.77;;;;;;;;;;4970692;28;20863;-51
2022/03/17 04:27:44;;;;;;;6.38;4.47;;;;;;;;;;4981738;28;20498;-50
2022/03/17 04:30:09;;;;;;;6.13;4.30;;;;;;;;;;5004123;28;20033;-51
2022/03/17 04:32:35;;;;;;;5.63;4.25;;;;;;;;;;4996099;28;21187;-50
2022/03/17 04:35:00;;;;;;;6.80;4.50;;;;;;;;;;4984316;28;20022;-51
2022/03/17 04:37:25;;;;;;;6.70;4.40;;;;;;;;;;4973120;28;20270;-51
2022/03/17 04:39:50;;;;;;;6.30;3.97;;;;;;;;;;4982982;28;20277;-51
2022/03/17 04:42:16;;;;;;;5.80;3.90;;;;;;;;;;4980866;28;20309;-51
2022/03/17 04:44:41;;;;;;;7.18;4.57;;;;;;;;;;4963884;28;20109;-51
2022/03/17 04:47:06;;;;;;;6.67;3.97;;;;;;;;;;4982648;28;20074;-51
2022/03/17 04:49:31;;;;;;;6.18;4.10;;;;;;;;;;4983490;28;20281;-51
2022/03/17 04:51:57;;;;;;;7.20;3.93;;;;;;;;;;4983301;28;20089;-51
2022/03/17 04:54:22;;;;;;;9.55;4.70;;;;;;;;;;4978691;28;20073;-50
2022/03/17 04:56:47;;;;;;;7.35;4.35;;;;;;;;;;4982474;28;20104;-51
2022/03/17 04:59:13;;;;;;;6.43;4.47;;;;;;;;;;4981261;28;20493;-51
2022/03/17 05:01:38;;;;;;;6.03;4.07;;;;;;;;;;4982463;28;20668;-52
2022/03/17 05:04:04;;;;;;;6.38;4.07;;;;;;;;;;4981211;28;20407;-50
2022/03/17 05:06:29;;;;;;;6.00;4.03;;;;;;;;;;4982381;28;20053;-50
2022/03/17 05:08:54;;;;;;;6.22;4.32;;;;;;;;;;4982458;28;20030;-52
2022/03/17 05:11:20;;;;;;;6.28;4.05;;;;;;;;;;4983751;28;20068;-52
2022/03/17 05:13:46;;;;;;;5.57;3.85;;;;;;;;;;4983562;28;20026;-51
2022/03/17 05:16:12;;;;;;;5.95;4.10;;;;;;;;;;4988894;28;20034;-51
2022/03/17 05:18:37;;;;;;;6.88;4.00;;;;;;;;;;4992197;28;20034;-51
2022/03/17 05:21:02;;;;;;;5.20;3.63;;;;;;;;;;4991279;28;20101;-51
2022/03/17 05:23:30;;;;;;;5.07;3.83;;;;;;;;;;4988369;28;20663;-51
2022/03/17 05:25:56;;;;;;;5.68;3.63;;;;;;;;;;4983790;28;20026;-51
2022/03/17 05:28:21;;;;;;;6.10;3.85;;;;;;;;;;4983732;28;20386;-51
2022/03/17 05:30:46;;;;;;;5.40;3.37;;;;;;;;;;4985735;28;20023;-51
2022/03/17 05:33:12;;;;;;;8.65;3.72;;;;;;;;;;4985665;28;20494;-51
2022/03/17 05:35:40;;;;;;;5.25;3.97;;;;;;;;;;4982911;28;20393;-50
2022/03/17 05:38:06;;;;;;;4.85;3.35;;;;;;;;;;4966375;28;20022;-50
2022/03/17 05:40:31;;;;;;;5.93;3.90;;;;;;;;;;4981577;28;20105;-50
2022/03/17 05:42:57;;;;;;;5.72;3.75;;;;;;;;;;4982301;28;20054;-50
2022/03/17 05:45:25;;;;;;;4.60;3.53;;;;;;;;;;4968783;28;20552;-50
2022/03/17 05:47:52;;;;;;;5.45;3.53;;;;;;;;;;4981459;28;20252;-50
2022/03/17 05:50:24;;;;;;;5.55;3.50;;;;;;;;;;4982273;28;20022;-50
2022/03/17 05:52:50;;;;;;;5.45;3.63;;;;;;;;;;4981401;28;20041;-51
2022/03/17 05:55:16;;;;;;;5.57;3.37;;;;;;;;;;4981905;28;20038;-51
2022/03/17 05:57:41;;;;;;;4.70;3.35;;;;;;;;;;4981507;28;20284;-51
2022/03/17 06:00:07;;;;;;;4.63;3.10;;;;;;;;;;4981025;28;20018;-51
2022/03/17 06:02:36;;;;;;;5.10;3.42;;;;;;;;;;4980907;28;20117;-51
2022/03/17 06:05:02;;;;;;;4.35;3.03;;;;;;;;;;4966342;28;20046;-52
2022/03/17 06:07:37;;;;;;;5.55;3.38;;;;;;;;;;4981313;28;20034;-50
2022/03/17 06:10:03;;;;;;;5.38;3.58;;;;;;;;;;4980915;28;20030;-50
2022/03/17 06:12:29;;;;;;;6.03;3.42;;;;;;;;;;4979834;28;20603;-51
2022/03/17 06:14:54;;;;;;;5.35;3.40;;;;;;;;;;4979364;28;20046;-50
2022/03/17 06:17:20;;;;;;;4.35;3.08;;;;;;;;;;4978709;28;20034;-50
2022/03/17 06:19:45;;;;;;;5.93;3.55;;;;;;;;;;4978862;28;20032;-50
2022/03/17 06:22:11;;;;;;;4.57;3.30;;;;;;;;;;4974549;28;20442;-50
2022/03/17 06:24:36;;;;;;;4.13;3.20;;;;;;;;;;4968584;28;20699;-51
2022/03/17 06:27:01;;;;;;;4.60;3.23;;;;;;;;;;4937663;28;20056;-50
2022/03/17 06:29:26;;;;;;;5.63;3.00;;;;;;;;;;4981454;28;20030;-50
2022/03/17 06:31:51;;;;;;;4.50;2.83;;;;;;;;;;4982525;28;20503;-50
2022/03/17 06:34:18;;;;;;;4.03;2.77;;;;;;;;;;4982609;28;20026;-51
2022/03/17 06:36:43;;;;;;;4.55;3.10;;;;;;;;;;4982645;28;20465;-51
2022/03/17 06:39:08;;;;;;;3.50;2.60;;;;;;;;;;4981068;28;20022;-51
2022/03/17 06:41:34;;;;;;;4.70;2.93;;;;;;;;;;4979999;28;20573;-51
2022/03/17 06:43:59;;;;;;;4.30;3.10;;;;;;;;;;4967051;28;20499;-51
2022/03/17 06:46:24;;;;;;;4.27;2.87;;;;;;;;;;4976469;28;20482;-51
2022/03/17 06:48:50;;;;;;;4.72;3.15;;;;;;;;;;4981906;28;20673;-51
2022/03/17 06:51:15;;;;;;;4.23;2.53;;;;;;;;;;4980845;28;20023;-51
2022/03/17 06:53:40;;;;;;;4.50;2.73;;;;;;;;;;4978893;28;20046;-50
2022/03/17 06:56:05;;;;;;;6.80;3.20;;;;;;;;;;4975110;28;20037;-51
2022/03/17 06:58:31;;;;;;;4.00;2.70;;;;;;;;;;4973126;28;20529;-51
2022/03/17 07:00:57;;;;;;;4.53;2.85;;;;;;;;;;4968257;28;20502;-51
2022/03/17 07:03:22;;;;;;;4.10;2.65;;;;;;;;;;4980301;28;20113;-52
2022/03/17 07:05:47;;;;;;;3.70;2.73;;;;;;;;;;4969759;28;20050;-51
2022/03/17 07:08:12;;;;;;;4.33;2.87;;;;;;;;;;4990445;28;20025;-51
2022/03/17 07:10:37;;;;;;;5.07;3.10;;;;;;;;;;5004939;28;20287;-52
2022/03/17 07:13:03;;;;;;;6.20;3.08;;;;;;;;;;4985542;28;20149;-51
2022/03/17 07:15:29;;;;;;;4.30;2.90;;;;;;;;;;4985354;28;20021;-50
2022/03/17 07:17:54;;;;;;;6.05;2.72;;;;;;;;;;4983985;28;20061;-51
2022/03/17 07:20:19;;;;;;;5.30;2.83;;;;;;;;;;4985411;28;20033;-51
2022/03/17 07:22:47;;;;;;;4.90;3.15;;;;;;;;;;4976462;28;20316;-51
2022/03/17 07:25:12;;;;;;;4.55;2.85;;;;;;;;;;4975890;28;20893;-51
2022/03/17 07:27:40;;;;;;;5.50;2.90;;;;;;;;;;4964897;28;20050;-52
2022/03/17 07:30:06;;;;;;;5.00;2.60;;;;;;;;;;4965694;28;20026;-50
2022/03/17 07:32:31;;;;;;;6.63;3.33;;;;;;;;;;4965956;28;20465;-49
2022/03/17 07:34:56;;;;;;;5.37;3.30;;;;;;;;;;4967057;28;20046;-50
2022/03/17 07:37:22;;;;;;;5.47;2.43;;;;;;;;;;4966778;28;20074;-49
2022/03/17 07:39:48;;;;;;;4.43;2.57;;;;;;;;;;4966979;28;20272;-50
2022/03/17 07:42:13;;;;;;;6.68;3.00;;;;;;;;;;4966939;28;20490;-50
2022/03/17 07:44:38;;;;;;;4.38;2.72;;;;;;;;;;4966170;28;20018;-52
2022/03/17 07:47:04;;;;;;;5.20;2.83;;;;;;;;;;4975537;28;20699;-50
2022/03/17 07:49:30;;;;;;;4.30;2.63;;;;;;;;;;4974573;28;20026;-50
2022/03/17 07:51:55;;;;;;;5.03;3.03;;;;;;;;;;4970644;28;20465;-50
2022/03/17 07:54:20;;;;;;;5.38;3.00;;;;;;;;;;4969250;28;20481;-50
2022/03/17 07:56:45;;;;;;;4.07;2.60;;;;;;;;;;4970046;28;20025;-50
2022/03/17 07:59:11;;;;;;;4.63;2.53;;;;;;;;;;4972040;28;20553;-50
2022/03/17 08:01:36;;;;;;;5.13;2.43;;;;;;;;;;4974307;28;20787;-51
2022/03/17 08:04:01;;;;;;;4.53;3.03;;;;;;;;;;4983108;28;20850;-50
2022/03/17 08:06:26;;;;;;;4.80;2.90;;;;;;;;;;4980611;28;20423;-51
2022/03/17 08:08:52;;;;;;;4.90;3.00;;;;;;;;;;4964330;28;20442;-49
2022/03/17 08:11:17;;;;;;;4.53;3.10;;;;;;;;;;4969203;28;20070;-50
2022/03/17 08:13:42;;;;;;;5.50;2.47;;;;;;;;;;4966823;28;20658;-49
2022/03/17 08:16:10;;;;;;;5.60;3.00;;;;;;;;;;4968163;28;20265;-50
2022/03/17 08:18:36;;;;;;;5.05;3.00;;;;;;;;;;4981582;28;20018;-50
2022/03/17 08:21:01;;;;;;;4.78;3.03;;;;;;;;;;4980317;28;20022;-50
2022/03/17 08:23:26;;;;;;;4.40;2.77;;;;;;;;;;4978776;28;20034;-51
2022/03/17 08:25:51;;;;;;;4.90;3.03;;;;;;;;;;4967633;28;20035;-51
2022/03/17 08:28:20;;;;;;;4.32;2.88;;;;;;;;;;4984046;28;20125;-50
2022/03/17 08:30:48;;;;;;;4.78;3.05;;;;;;;;;;4984606;28;20506;-51
2022/03/17 08:33:14;;;;;;;7.25;3.50;;;;;;;;;;4968210;28;20042;-51
2022/03/17 08:35:40;;;;;;;5.40;3.30;;;;;;;;;;4979900;28;20914;-52
2022/03/17 08:38:05;;;;;;;5.45;3.08;;;;;;;;;;4983376;28;20026;-51
2022/03/17 08:40:30;;;;;;;5.00;3.00;;;;;;;;;;4983205;28;20072;-50
2022/03/17 08:42:55;;;;;;;6.00;3.60;;;;;;;;;;4982956;28;20344;-51
2022/03/17 08:50:49;;;;;;;6.00;3.40;;;;;;;;;;4974084;28;20029;-50
2022/03/17 08:53:14;;;;;;;7.72;3.75;;;;;;;;;;4981184;28;20034;-51
2022/03/17 08:55:39;;;;;;;5.25;3.30;;;;;;;;;;4981281;28;20027;-51
2022/03/17 08:58:05;;;;;;;5.73;3.50;;;;;;;;;;4979800;28;20022;-51
2022/03/17 09:00:34;;;;;;;6.05;3.55;;;;;;;;;;4981470;28;20757;-51
2022/03/17 09:03:01;;;;;;;7.90;4.40;;;;;;;;;;4980446;28;20080;-51
2022/03/17 09:05:27;;;;;;;7.45;4.32;;;;;;;;;;4982704;28;20030;-50
2022/03/17 09:07:52;;;;;;;8.50;4.33;;;;;;;;;;4982275;28;20411;-51
2022/03/17 09:10:18;;;;;;;7.80;4.13;;;;;;;;;;4981979;28;20279;-50
2022/03/17 09:12:43;;;;;;;7.15;4.18;;;;;;;;;;4982106;28;20084;-51
2022/03/17 09:15:11;;;;;;;9.30;5.07;;;;;;;;;;4973437;28;20062;-51
2022/03/17 09:17:39;;;;;;;8.02;5.05;;;;;;;;;;4979769;28;20026;-51
2022/03/17 09:20:06;;;;;;;9.18;5.03;;;;;;;;;;4981273;28;20205;-51
2022/03/17 09:22:32;;;;;;;8.65;5.15;;;;;;;;;;4982928;28;20026;-51
2022/03/17 09:24:57;;;;;;;8.57;4.90;;;;;;;;;;4980655;28;20512;-51
2022/03/17 09:27:23;;;;;;;8.40;5.00;;;;;;;;;;4981914;28;20688;-51
2022/03/17 09:29:48;;;;;;;7.20;4.60;;;;;;;;;;4982265;28;20022;-51
2022/03/17 09:32:15;;;;;;;8.25;4.70;;;;;;;;;;4982926;28;20477;-50
2022/03/17 09:34:40;;;;;;;7.30;4.65;;;;;;;;;;4982424;28;20022;-51
2022/03/17 09:37:06;;;;;;;8.10;4.43;;;;;;;;;;4982537;28;20014;-50
2022/03/17 09:39:45;;;;;;;8.93;5.00;;;;;;;;;;4981814;28;20034;-51
2022/03/17 09:42:14;;;;;;;7.20;4.72;;;;;;;;;;4981985;28;20058;-49
2022/03/17 09:44:40;;;;;;;8.43;5.32;;;;;;;;;;4981309;28;20034;-51
2022/03/17 09:47:08;;;;;;;9.88;4.65;;;;;;;;;;4979590;28;20057;-50
2022/03/17 09:49:36;;;;;;;8.23;5.03;;;;;;;;;;4982186;28;20030;-50
2022/03/17 09:52:05;;;;;;;8.38;4.95;;;;;;;;;;4978011;28;20028;-50
2022/03/17 09:54:33;;;;;;;7.88;4.82;;;;;;;;;;4980795;28;20145;-50
2022/03/17 09:56:59;;;;;;;8.40;4.70;;;;;;;;;;4993045;28;20172;-50
2022/03/17 09:59:24;;;;;;;7.72;5.05;;;;;;;;;;5000830;28;20108;-50
2022/03/17 10:01:50;;;;;;;8.00;4.67;;;;;;;;;;4984845;28;20026;-50
2022/03/17 10:04:15;;;;;;;8.23;5.10;;;;;;;;;;4981526;28;20278;-50
2022/03/17 10:06:41;;;;;;;8.68;5.05;;;;;;;;;;4981265;28;20026;-51
2022/03/17 10:09:06;;;;;;;8.20;5.32;;;;;;;;;;4982600;28;20038;-51
2022/03/17 10:11:32;;;;;;;8.77;5.40;;;;;;;;;;4996178;28;20034;-52
2022/03/17 10:13:59;;;;;;;6.95;4.90;;;;;;;;;;4984764;28;20348;-51
2022/03/17 10:16:24;;;;;;;8.98;4.70;;;;;;;;;;4988787;28;20512;-51
2022/03/17 10:18:56;;;;;;;7.78;4.93;;;;;;;;;;4991105;28;20022;-49
2022/03/17 10:21:24;;;;;;;8.00;5.03;;;;;;;;;;4982501;28;20072;-51
2022/03/17 10:23:59;;;;;;;8.13;5.63;;;;;;;;;;4981857;28;20378;-50
2022/03/17 10:26:41;;;;;;;8.18;5.15;;;;;;;;;;4971194;28;20030;-50
2022/03/17 10:29:09;;;;;;;8.07;4.93;;;;;;;;;;4986128;28;20034;-50
2022/03/17 10:31:50;;;;;;;6.78;4.88;;;;;;;;;;4986403;28;20038;-51
2022/03/17 10:34:15;;;;;;;9.25;4.80;;;;;;;;;;4981657;28;20096;-50
2022/03/17 10:36:41;;;;;;;8.25;5.30;;;;;;;;;;5006024;28;20030;-51
2022/03/17 10:39:09;;;;;;;8.45;4.50;;;;;;;;;;4986295;28;20056;-50
2022/03/17 10:41:44;;;;;;;7.70;4.90;;;;;;;;;;4986088;28;20434;-50
2022/03/17 10:44:10;;;;;;;6.90;4.45;;;;;;;;;;4985571;28;20291;-50
2022/03/17 10:46:35;;;;;;;7.78;4.72;;;;;;;;;;4985901;28;20500;-50
2022/03/17 10:49:01;;;;;;;7.97;4.73;;;;;;;;;;4984521;28;20522;-50
2022/03/17 10:51:35;;;;;;;7.65;4.70;;;;;;;;;;4984670;28;20633;-51
2022/03/17 10:54:02;;;;;;;7.72;4.65;;;;;;;;;;4985487;28;20050;-51
2022/03/17 10:56:27;;;;;;;7.43;4.50;;;;;;;;;;4985993;28;20030;-52
2022/03/17 10:58:52;;;;;;;7.20;4.20;;;;;;;;;;4995438;28;20037;-51
2022/03/17 11:01:22;;;;;;;7.60;4.90;;;;;;;;;;5006380;28;20030;-50
2022/03/17 11:03:48;;;;;;;7.80;4.90;;;;;;;;;;5005173;28;20029;-52
2022/03/17 11:06:15;;;;;;;8.90;4.75;;;;;;;;;;4984656;28;20061;-51
2022/03/17 11:08:41;;;;;;;7.20;4.53;;;;;;;;;;4987458;28;20041;-52
2022/03/17 11:11:08;;;;;;;8.00;4.45;;;;;;;;;;4986950;28;20030;-51
2022/03/17 11:13:33;;;;;;;9.07;4.68;;;;;;;;;;4985841;28;20424;-51
2022/03/17 11:16:00;;;;;;;8.20;4.60;;;;;;;;;;4976279;28;20015;-52
2022/03/17 11:18:25;;;;;;;8.02;4.90;;;;;;;;;;4978374;28;20267;-51
2022/03/17 11:21:10;;;;;;;7.30;4.53;;;;;;;;;;4977164;28;20088;-52
2022/03/17 11:23:39;;;;;;;6.70;4.15;;;;;;;;;;4989197;28;20030;-52
2022/03/17 11:26:04;;;;;;;7.37;4.53;;;;;;;;;;4993450;28;20042;-51
2022/03/17 11:28:36;;;;;;;8.00;5.13;;;;;;;;;;4991132;28;20402;-53
2022/03/17 11:31:05;;;;;;;8.13;4.75;;;;;;;;;;4992641;28;20486;-51
2022/03/17 11:33:32;;;;;;;6.97;4.60;;;;;;;;;;4986560;28;20030;-52
2022/03/17 11:36:23;;;;;;;7.25;4.07;;;;;;;;;;4968242;28;20026;-51
2022/03/17 11:39:09;;;;;;;8.60;4.43;;;;;;;;;;4976697;28;20081;-50
2022/03/17 11:41:40;;;;;;;7.53;4.38;;;;;;;;;;4973608;28;20536;-51
2022/03/17 11:44:05;;;;;;;6.88;4.25;;;;;;;;;;4975300;28;20023;-51
2022/03/17 11:46:37;;;;;;;6.85;3.95;;;;;;;;;;4966509;28;20026;-52
2022/03/17 11:49:23;;;;;;;7.20;4.07;;;;;;;;;;4970854;28;20054;-50
2022/03/17 11:52:09;;;;;;;7.15;4.25;;;;;;;;;;4966294;28;20043;-52
2022/03/17 11:54:34;;;;;;;8.35;4.50;;;;;;;;;;4966844;28;20050;-51
2022/03/17 11:57:00;;;;;;;7.22;4.32;;;;;;;;;;4971809;28;20046;-52
2022/03/17 11:59:30;;;;;;;6.78;4.43;;;;;;;;;;4968848;28;20067;-50
2022/03/17 12:01:56;;;;;;;8.45;4.78;;;;;;;;;;4966163;28;20023;-51
2022/03/17 12:04:30;;;;;;;6.15;4.15;;;;;;;;;;4966998;28;20074;-52
2022/03/17 12:07:19;;;;;;;7.72;4.18;;;;;;;;;;4969688;28;20741;-50
2022/03/17 12:09:44;;;;;;;6.97;4.25;;;;;;;;;;4966712;28;20027;-50
2022/03/17 12:12:22;;;;;;;7.35;4.72;;;;;;;;;;4985581;28;20029;-51
2022/03/17 12:14:52;;;;;;;7.82;5.22;;;;;;;;;;4986255;28;20022;-51
2022/03/17 12:17:17;;;;;;;;;;;;;;;;;;4997347;28;20857;-50
2022/03/17 12:19:48;;;;;;;8.53;5.27;;;;;;;;;;4988053;28;19974;-50
2022/03/17 12:22:17;;;;;;;6.85;4.75;;;;;;;;;;4985135;28;20026;-51
2022/03/17 12:24:45;;;;;;;8.60;5.28;;;;;;;;;;4978100;28;20133;-50
2022/03/17 12:27:12;;;;;;;7.20;5.18;;;;;;;;;;4977534;28;20145;-51
2022/03/17 12:29:38;;;;;;;7.57;4.90;;;;;;;;;;4985562;28;20115;-51
2022/03/17 12:32:21;;;;;;;6.85;4.40;;;;;;;;;;4984449;28;20117;-51
2022/03/17 12:34:47;;;;;;;7.38;4.47;;;;;;;;;;4986278;28;20561;-49
2022/03/17 12:37:12;;;;;;;7.43;4.70;;;;;;;;;;4986930;28;20034;-50
2022/03/17 12:39:38;;;;;;;7.53;4.60;;;;;;;;;;4986621;28;20117;-51
2022/03/17 12:42:14;;;;;;;6.97;4.40;;;;;;;;;;4985403;28;20117;-50
2022/03/17 12:44:59;;;;;;;7.32;4.90;;;;;;;;;;4979717;28;20038;-51
2022/03/17 12:47:25;;;;;;;7.50;4.35;;;;;;;;;;4980296;28;20038;-50
2022/03/17 12:49:50;;;;;;;6.68;4.18;;;;;;;;;;4986906;28;20096;-51
2022/03/17 12:52:25;;;;;;;6.05;4.15;;;;;;;;;;4985394;28;20034;-51
2022/03/17 12:54:52;;;;;;;7.47;4.80;;;;;;;;;;4968967;28;20142;-51
2022/03/17 12:57:17;;;;;;;6.75;4.47;;;;;;;;;;4979644;28;20117;-53
2022/03/17 12:59:42;;;;;;;6.35;4.15;;;;;;;;;;4988379;28;20045;-50
2022/03/17 13:02:08;;;;;;;6.95;4.03;;;;;;;;;;4983391;28;20089;-50
2022/03/17 13:04:38;;;;;;;6.90;4.73;;;;;;;;;;4983158;28;20030;-51
2022/03/17 13:07:06;;;;;;;7.07;4.40;;;;;;;;;;4984022;28;20112;-50
2022/03/17 13:09:31;;;;;;;7.72;4.55;;;;;;;;;;4986417;28;20048;-51
2022/03/17 13:14:45;;;;;;;6.95;4.60;;;;;;;;;;4983851;28;20097;-52
2022/03/17 13:17:10;;;;;;;7.03;4.25;;;;;;;;;;4983607;28;20019;-51
2022/03/17 13:19:45;;;;;;;6.65;4.30;;;;;;;;;;4983114;28;20030;-51
2022/03/17 13:22:10;;;;;;;7.82;4.75;;;;;;;;;;4969839;28;20022;-51
2022/03/17 13:24:36;;;;;;;6.87;4.60;;;;;;;;;;4966113;28;20025;-52
2022/03/17 13:27:01;;;;;;;7.70;4.78;;;;;;;;;;4966316;28;20082;-51
2022/03/17 13:29:26;;;;;;;6.47;4.55;;;;;;;;;;4970852;28;20022;-51
2022/03/17 13:31:52;;;;;;;8.00;4.95;;;;;;;;;;4981420;28;20018;-52
2022/03/17 13:34:30;;;;;;;7.87;4.67;;;;;;;;;;4983703;28;20686;-51
2022/03/17 13:36:56;;;;;;;8.05;4.85;;;;;;;;;;4983301;28;20297;-51
2022/03/17 13:39:32;;;;;;;7.82;4.85;;;;;;;;;;4983524;28;20066;-52
2022/03/17 13:42:06;;;;;;;7.00;4.22;;;;;;;;;;4971533;28;20027;-51
2022/03/17 13:44:43;;;;;;;7.13;4.05;;;;;;;;;;4977376;28;20062;-51
2022/03/17 13:47:09;;;;;;;7.97;4.75;;;;;;;;;;4984780;28;20474;-52
2022/03/17 13:49:36;;;;;;;7.55;4.82;;;;;;;;;;4982120;28;20038;-51
2022/03/17 13:52:02;;;;;;;7.40;4.72;;;;;;;;;;4981165;28;20026;-51
2022/03/17 13:54:27;;;;;;;9.27;4.95;;;;;;;;;;4983006;28;20165;-51
2022/03/17 13:56:59;;;;;;;9.60;5.13;;;;;;;;;;4983470;28;20057;-50
2022/03/17 13:59:24;;;;;;;8.20;5.00;;;;;;;;;;4983549;28;20026;-52
2022/03/17 14:02:09;;;;;;;7.23;4.40;;;;;;;;;;4979158;28;20109;-50
2022/03/17 14:04:34;;;;;;;9.27;5.20;;;;;;;;;;4982908;28;20281;-51
2022/03/17 14:06:59;;;;;;;8.37;5.27;;;;;;;;;;4981917;28;20042;-50
2022/03/17 14:09:24;;;;;;;8.80;5.87;;;;;;;;;;4979463;28;20035;-51
2022/03/17 14:11:49;;;;;;;7.63;4.80;;;;;;;;;;4967129;28;20358;-51
2022/03/17 14:14:15;;;;;;;10.30;6.18;;;;;;;;;;4966573;28;20931;-50
2022/03/17 14:16:40;;;;;;;9.10;5.80;;;;;;;;;;4966655;28;20479;-50
2022/03/17 14:19:06;;;;;;;10.48;6.30;;;;;;;;;;4971777;28;20031;-49
2022/03/17 14:21:31;;;;;;;9.70;6.38;;;;;;;;;;4967809;28;20074;-52
2022/03/17 14:24:12;;;;;;;11.07;6.47;;;;;;;;;;4966226;28;20030;-51
2022/03/17 14:26:38;;;;;;;10.75;6.35;;;;;;;;;;4975856;28;20026;-52
2022/03/17 14:29:04;;;;;;;8.70;5.93;;;;;;;;;;4986188;28;20027;-51
2022/03/17 14:31:30;;;;;;;12.23;6.90;;;;;;;;;;4984415;28;20281;-52
2022/03/17 14:33:55;;;;;;;8.95;6.30;;;;;;;;;;4986346;28;20030;-48
2022/03/17 14:36:21;;;;;;;10.18;6.35;;;;;;;;;;4981733;28;20034;-49
2022/03/17 14:38:46;;;;;;;10.27;5.67;;;;;;;;;;4986170;28;20102;-49
2022/03/17 14:41:12;;;;;;;10.65;6.28;;;;;;;;;;4986012;28;20281;-51
2022/03/17 14:43:38;;;;;;;9.98;6.65;;;;;;;;;;4986651;28;20069;-49
2022/03/17 14:46:03;;;;;;;11.07;6.43;;;;;;;;;;4969966;28;20130;-49
2022/03/17 14:48:28;;;;;;;10.50;6.93;;;;;;;;;;4985992;28;20075;-49
2022/03/17 14:50:54;;;;;;;9.57;6.20;;;;;;;;;;4985770;28;20273;-48
2022/03/17 14:53:19;;;;;;;12.20;6.78;;;;;;;;;;4985961;28;20593;-50
2022/03/17 14:55:45;;;;;;;10.73;6.85;;;;;;;;;;4986028;28;20072;-49